createdAt,value
2023-03-15T00:02:26.011Z,19.02
2023-03-15T00:04:55.691Z,18.70
2023-03-15T00:07:26.295Z,17.33
2023-03-15T00:09:55.140Z,19.40
2023-03-15T00:12:25.781Z,16.05
2023-03-15T00:14:54.448Z,17.23
2023-03-15T00:17:23.147Z,16.30
2023-03-15T00:19:51.429Z,21.30
2023-03-15T00:22:19.148Z,19.55
2023-03-15T00:24:47.184Z,15.23
2023-03-15T00:27:15.081Z,15.73
2023-03-15T00:29:43.718Z,18.90
2023-03-15T00:32:11.486Z,16.85
2023-03-15T00:34:40.820Z,5.90
2023-03-15T00:37:08.736Z,3.35
2023-03-15T00:39:38.738Z,4.28
2023-03-15T00:42:09.257Z,3.53
2023-03-15T00:44:37.515Z,3.45
2023-03-15T00:47:05.721Z,5.88
2023-03-15T00:49:34.250Z,3.05
2023-03-15T00:52:02.925Z,2.90
2023-03-15T00:54:33.930Z,3.58
2023-03-15T00:57:02.782Z,4.85
2023-03-15T00:59:35.444Z,3.72
2023-03-15T01:02:04.306Z,3.42
2023-03-15T01:04:32.766Z,3.85
2023-03-15T01:07:00.726Z,4.70
2023-03-15T01:09:31.209Z,2.42
2023-03-15T01:11:59.667Z,2.38
2023-03-15T01:14:28.699Z,6.20
2023-03-15T01:16:56.583Z,2.30
2023-03-15T01:19:25.004Z,2.00
2023-03-15T01:21:53.934Z,4.50
2023-03-15T01:24:22.012Z,3.85
2023-03-15T01:26:51.346Z,6.00
2023-03-15T01:29:19.926Z,4.80
2023-03-15T01:31:47.890Z,2.75
2023-03-15T01:34:16.368Z,7.38
2023-03-15T01:36:44.337Z,4.68
2023-03-15T01:39:12.901Z,5.53
2023-03-15T01:41:46.091Z,6.22
2023-03-15T01:44:15.521Z,4.00
2023-03-15T01:46:44.992Z,8.18
2023-03-15T01:49:32.771Z,2.88
2023-03-15T01:52:03.935Z,3.83
2023-03-15T01:55:08.950Z,2.90
2023-03-15T01:57:45.746Z,6.05
2023-03-15T02:00:20.352Z,6.90
2023-03-15T02:03:05.425Z,7.32
2023-03-15T02:05:36.525Z,2.58
2023-03-15T02:08:07.996Z,2.60
2023-03-15T02:10:44.053Z,5.03
2023-03-15T02:13:16.438Z,6.78
2023-03-15T02:15:47.161Z,6.30
2023-03-15T02:18:22.847Z,4.47
2023-03-15T02:21:00.827Z,3.75
2023-03-15T02:23:29.533Z,6.60
2023-03-15T02:25:58.213Z,4.68
2023-03-15T02:28:28.955Z,6.07
2023-03-15T02:30:57.793Z,4.18
2023-03-15T02:33:31.559Z,6.93
2023-03-15T02:36:12.241Z,7.15
2023-03-15T02:38:39.940Z,2.17
2023-03-15T02:41:08.276Z,7.10
2023-03-15T02:43:36.683Z,7.00
2023-03-15T02:46:05.770Z,3.95
2023-03-15T02:48:35.321Z,4.75
2023-03-15T02:51:04.496Z,5.07
2023-03-15T02:53:32.936Z,7.28
2023-03-15T02:56:00.896Z,7.65
2023-03-15T02:58:29.259Z,4.60
2023-03-15T03:00:58.754Z,8.27
2023-03-15T03:03:27.008Z,9.20
2023-03-15T03:05:55.172Z,5.25
2023-03-15T03:08:23.544Z,6.32
2023-03-15T03:10:53.006Z,5.65
2023-03-15T03:13:20.893Z,6.00
2023-03-15T03:15:58.724Z,7.15
2023-03-15T03:18:32.116Z,4.95
2023-03-15T03:21:00.846Z,16.83
2023-03-15T03:23:29.371Z,11.15
2023-03-15T03:25:59.234Z,12.75
2023-03-15T03:28:29.891Z,28.30
2023-03-15T03:30:59.533Z,10.23
2023-03-15T03:33:28.162Z,7.65
2023-03-15T03:36:02.505Z,9.32
2023-03-15T03:38:30.753Z,7.72
2023-03-15T03:41:01.729Z,5.82
2023-03-15T03:43:32.589Z,4.47
2023-03-15T03:46:01.370Z,7.03
2023-03-15T03:48:29.806Z,10.63
2023-03-15T03:50:58.672Z,12.38
2023-03-15T03:53:26.473Z,4.25
2023-03-15T03:55:57.194Z,5.95
2023-03-15T03:58:25.024Z,8.77
2023-03-15T04:00:59.564Z,5.20
2023-03-15T04:03:31.416Z,8.20
2023-03-15T04:06:06.715Z,11.50
2023-03-15T04:08:38.972Z,13.27
2023-03-15T04:11:08.333Z,11.50
2023-03-15T04:13:39.529Z,9.35
2023-03-15T04:16:08.580Z,11.68
2023-03-15T04:18:51.873Z,15.40
2023-03-15T04:21:23.377Z,13.40
2023-03-15T04:23:55.446Z,12.25
2023-03-15T04:26:46.726Z,13.18
2023-03-15T04:29:42.147Z,15.82
2023-03-15T04:32:26.583Z,13.90
2023-03-15T04:35:12.967Z,12.93
2023-03-15T04:38:01.513Z,12.82
2023-03-15T04:41:01.612Z,11.70
2023-03-15T04:43:47.801Z,9.25
2023-03-15T04:46:34.462Z,11.85
2023-03-15T04:49:20.896Z,12.57
2023-03-15T04:52:00.779Z,11.63
2023-03-15T04:54:42.599Z,12.85
2023-03-15T04:57:21.694Z,9.75
2023-03-15T05:00:23.045Z,10.68
2023-03-15T05:03:23.488Z,10.93
2023-03-15T05:06:08.569Z,8.70
2023-03-15T05:08:48.426Z,9.07
2023-03-15T05:11:35.562Z,10.85
2023-03-15T05:14:16.446Z,15.13
2023-03-15T05:17:17.061Z,11.88
2023-03-15T05:20:08.539Z,9.27
2023-03-15T05:22:56.948Z,10.95
2023-03-15T05:25:42.299Z,13.85
2023-03-15T05:28:25.833Z,12.75
2023-03-15T05:31:25.600Z,10.77
2023-03-15T05:34:24.381Z,14.05
2023-03-15T05:37:02.804Z,11.00
2023-03-15T05:39:36.747Z,13.88
2023-03-15T05:42:30.845Z,10.98
2023-03-15T05:45:08.638Z,14.82
2023-03-15T05:47:59.414Z,11.77
2023-03-15T05:50:40.681Z,18.05
2023-03-15T05:53:27.017Z,13.38
2023-03-15T05:56:13.796Z,15.75
2023-03-15T05:58:47.882Z,16.38
2023-03-15T06:01:36.368Z,15.75
2023-03-15T06:04:12.721Z,12.65
2023-03-15T06:06:41.858Z,13.75
2023-03-15T06:09:11.729Z,14.45
2023-03-15T06:11:40.416Z,13.13
2023-03-15T06:14:12.622Z,7.85
2023-03-15T06:16:59.199Z,7.50
2023-03-15T06:19:30.052Z,9.07
2023-03-15T06:21:58.478Z,11.25
2023-03-15T06:24:36.343Z,16.30
2023-03-15T06:27:05.423Z,10.02
2023-03-15T06:29:35.787Z,16.42
2023-03-15T06:32:05.242Z,8.93
2023-03-15T06:34:36.988Z,15.88
2023-03-15T06:37:05.876Z,8.60
2023-03-15T06:39:34.653Z,16.55
2023-03-15T06:42:04.944Z,15.95
2023-03-15T06:44:37.644Z,22.67
2023-03-15T06:47:09.455Z,11.20
2023-03-15T06:49:38.305Z,13.48
2023-03-15T06:52:07.681Z,21.30
2023-03-15T06:54:35.943Z,14.38
2023-03-15T06:57:04.508Z,15.48
2023-03-15T06:59:32.748Z,18.02
2023-03-15T07:02:01.423Z,14.88
2023-03-15T07:04:29.355Z,15.15
2023-03-15T07:06:57.681Z,11.68
2023-03-15T07:09:25.715Z,11.35
2023-03-15T07:11:53.918Z,23.55
2023-03-15T07:14:22.471Z,15.50
2023-03-15T07:16:50.939Z,17.38
2023-03-15T07:19:18.655Z,21.63
2023-03-15T07:21:47.006Z,18.02
2023-03-15T07:24:15.132Z,18.00
2023-03-15T07:26:43.480Z,18.23
2023-03-15T07:29:11.309Z,12.55
2023-03-15T07:31:39.709Z,23.70
2023-03-15T07:34:07.739Z,19.00
2023-03-15T07:36:36.223Z,18.38
2023-03-15T07:39:05.200Z,23.17
2023-03-15T07:41:33.538Z,18.85
2023-03-15T07:44:16.008Z,19.92
2023-03-15T07:46:44.097Z,14.00
2023-03-15T07:49:11.875Z,14.02
2023-03-15T07:51:39.617Z,15.15
2023-03-15T07:54:07.482Z,16.33
2023-03-15T07:56:35.719Z,22.52
2023-03-15T07:59:03.505Z,20.08
2023-03-15T08:01:32.157Z,15.40
2023-03-15T08:04:00.094Z,20.05
2023-03-15T08:06:28.149Z,17.40
2023-03-15T08:08:55.954Z,20.27
2023-03-15T08:11:24.507Z,14.05
2023-03-15T08:13:52.346Z,17.48
2023-03-15T08:17:17.070Z,13.75
2023-03-15T08:20:03.282Z,12.48
2023-03-15T08:22:31.272Z,13.80
2023-03-15T08:24:59.310Z,14.93
2023-03-15T08:27:27.953Z,14.90
2023-03-15T08:29:55.710Z,14.80
2023-03-15T08:32:24.038Z,13.05
2023-03-15T08:34:53.321Z,16.38
2023-03-15T08:37:21.750Z,21.58
2023-03-15T08:39:49.658Z,17.63
2023-03-15T08:42:18.336Z,17.55
2023-03-15T08:44:46.093Z,18.80
2023-03-15T08:47:14.716Z,17.10
2023-03-15T08:49:42.552Z,12.30
2023-03-15T08:52:11.181Z,14.15
2023-03-15T08:54:39.099Z,20.38
2023-03-15T08:57:07.401Z,12.93
2023-03-15T08:59:35.239Z,17.05
2023-03-15T09:02:04.284Z,17.00
2023-03-15T09:04:34.348Z,14.05
2023-03-15T09:07:02.405Z,18.17
2023-03-15T09:09:30.566Z,14.30
2023-03-15T09:11:58.694Z,18.63
2023-03-15T09:14:26.491Z,16.95
2023-03-15T09:16:54.942Z,16.98
2023-03-15T09:19:22.830Z,11.90
2023-03-15T09:21:51.493Z,17.40
2023-03-15T09:24:19.139Z,9.18
2023-03-15T09:26:47.586Z,14.90
2023-03-15T09:29:15.367Z,6.63
2023-03-15T09:31:43.682Z,8.40
2023-03-15T09:34:11.470Z,14.38
2023-03-15T09:36:39.614Z,10.77
2023-03-15T09:39:08.592Z,15.40
2023-03-15T09:41:46.848Z,7.03
2023-03-15T09:44:54.882Z,17.23
2023-03-15T09:47:39.381Z,7.20
2023-03-15T09:50:30.765Z,13.30
2023-03-15T09:53:01.504Z,13.93
2023-03-15T09:55:30.110Z,13.55
2023-03-15T09:58:04.067Z,9.68
2023-03-15T10:01:06.159Z,17.85
2023-03-15T10:03:50.813Z,11.15
2023-03-15T10:06:24.407Z,16.08
2023-03-15T10:08:58.753Z,19.77
2023-03-15T10:11:51.114Z,13.73
2023-03-15T10:14:28.462Z,12.38
2023-03-15T10:16:56.020Z,18.92
2023-03-15T10:19:52.498Z,16.55
2023-03-15T10:22:43.718Z,14.15
2023-03-15T10:25:24.127Z,18.85
2023-03-15T10:28:01.855Z,18.15
2023-03-15T10:30:33.399Z,16.20
2023-03-15T10:33:16.790Z,21.73
2023-03-15T10:35:44.868Z,20.40
2023-03-15T10:38:17.136Z,16.92
2023-03-15T10:40:53.801Z,14.70
2023-03-15T10:43:22.776Z,13.18
2023-03-15T10:46:14.329Z,14.82
2023-03-15T10:49:01.478Z,15.60
2023-03-15T10:51:34.908Z,16.48
2023-03-15T10:56:38.151Z,15.13
2023-03-15T10:59:16.710Z,17.30
2023-03-15T11:01:48.573Z,16.20
2023-03-15T11:04:22.392Z,17.95
2023-03-15T11:07:01.082Z,24.67
2023-03-15T11:09:39.441Z,14.25
2023-03-15T11:12:10.347Z,18.10
2023-03-15T11:14:46.641Z,18.73
2023-03-15T11:17:21.408Z,16.65
2023-03-15T11:19:59.860Z,13.02
2023-03-15T11:22:28.176Z,16.17
2023-03-15T11:24:55.496Z,18.55
2023-03-15T11:27:24.462Z,16.42
2023-03-15T11:29:56.188Z,11.27
2023-03-15T11:32:27.191Z,16.63
2023-03-15T11:35:07.898Z,12.25
2023-03-15T11:37:45.118Z,15.98
2023-03-15T11:40:24.539Z,12.68
2023-03-15T11:43:05.272Z,11.38
2023-03-15T11:45:37.681Z,12.45
2023-03-15T11:48:40.831Z,15.77
2023-03-15T11:51:09.185Z,15.60
2023-03-15T11:53:50.606Z,18.80
2023-03-15T11:56:25.689Z,18.70
2023-03-15T11:59:15.944Z,13.55
2023-03-15T12:01:49.951Z,17.83
2023-03-15T12:04:34.121Z,12.77
2023-03-15T12:07:06.686Z,15.45
2023-03-15T12:12:26.920Z,8.57
2023-03-15T12:15:20.262Z,13.32
2023-03-15T12:17:54.929Z,14.63
2023-03-15T12:20:39.200Z,12.00
2023-03-15T12:23:19.298Z,9.65
2023-03-15T12:26:00.280Z,14.05
2023-03-15T12:28:28.893Z,11.00
2023-03-15T12:31:01.892Z,21.85
2023-03-15T12:33:32.149Z,8.32
2023-03-15T12:36:30.832Z,13.35
2023-03-15T12:39:37.825Z,9.90
2023-03-15T12:42:06.654Z,7.63
2023-03-15T12:44:39.879Z,13.48
2023-03-15T12:47:10.689Z,12.63
2023-03-15T12:49:39.595Z,9.00
2023-03-15T12:52:16.860Z,9.13
2023-03-15T12:54:46.581Z,9.00
2023-03-15T12:57:20.011Z,10.60
2023-03-15T12:59:55.276Z,9.73
2023-03-15T13:02:42.153Z,15.27
2023-03-15T13:05:26.608Z,8.88
2023-03-15T13:08:19.888Z,13.13
2023-03-15T13:11:05.581Z,13.77
2023-03-15T13:14:03.482Z,11.13
2023-03-15T13:16:45.059Z,10.50
2023-03-15T13:19:23.442Z,11.45
2023-03-15T13:22:09.936Z,13.02
2023-03-15T13:24:38.204Z,17.63
2023-03-15T13:27:14.219Z,15.52
2023-03-15T13:29:42.842Z,11.00
2023-03-15T13:32:19.226Z,9.80
2023-03-15T13:34:48.201Z,18.38
2023-03-15T13:37:18.134Z,7.68
2023-03-15T13:40:05.609Z,9.32
2023-03-15T13:42:34.043Z,10.20
2023-03-15T13:45:12.688Z,12.98
2023-03-15T13:47:42.189Z,8.15
2023-03-15T13:50:16.428Z,8.10
2023-03-15T13:52:44.749Z,6.38
2023-03-15T13:55:15.518Z,6.82
2023-03-15T13:57:43.561Z,10.10
2023-03-15T14:00:17.561Z,9.60
2023-03-15T14:02:54.273Z,12.77
2023-03-15T14:05:27.720Z,9.20
2023-03-15T14:08:03.195Z,16.05
2023-03-15T14:10:36.786Z,10.90
2023-03-15T14:15:57.853Z,13.48
2023-03-15T14:18:32.438Z,11.50
2023-03-15T14:21:06.389Z,12.98
2023-03-15T14:23:40.933Z,12.80
2023-03-15T14:26:19.864Z,10.50
2023-03-15T14:29:02.328Z,10.55
2023-03-15T14:31:34.829Z,8.88
2023-03-15T14:34:33.818Z,9.48
2023-03-15T14:37:05.840Z,9.68
2023-03-15T14:39:43.036Z,12.73
2023-03-15T14:42:12.569Z,8.20
2023-03-15T14:44:40.312Z,10.02
2023-03-15T14:47:16.814Z,9.13
2023-03-15T14:49:44.620Z,9.73
2023-03-15T14:52:13.387Z,8.98
2023-03-15T14:54:45.047Z,10.35
2023-03-15T14:57:13.607Z,7.00
2023-03-15T14:59:41.393Z,10.70
2023-03-15T15:02:18.377Z,12.43
2023-03-15T15:04:48.498Z,12.52
2023-03-15T15:07:18.801Z,7.85
2023-03-15T15:09:50.958Z,8.70
2023-03-15T15:12:19.534Z,7.07
2023-03-15T15:14:47.404Z,11.20
2023-03-15T15:17:15.869Z,8.95
2023-03-15T15:19:44.448Z,10.38
2023-03-15T15:22:14.065Z,9.82
2023-03-15T15:24:41.977Z,11.23
2023-03-15T15:27:11.440Z,10.85
2023-03-15T15:29:39.655Z,9.13
2023-03-15T15:32:08.239Z,12.85
2023-03-15T15:34:37.643Z,10.82
2023-03-15T15:37:06.180Z,12.25
2023-03-15T15:39:34.015Z,11.00
2023-03-15T15:42:02.714Z,9.23
2023-03-15T15:44:30.686Z,12.73
2023-03-15T15:47:01.289Z,11.15
2023-03-15T15:49:29.256Z,9.45
2023-03-15T15:51:57.915Z,14.85
2023-03-15T15:54:27.606Z,12.88
2023-03-15T15:56:59.814Z,10.45
2023-03-15T15:59:27.777Z,9.88
2023-03-15T16:02:00.995Z,10.35
2023-03-15T16:04:30.625Z,13.40
2023-03-15T16:07:02.005Z,16.00
2023-03-15T16:09:32.107Z,16.05
2023-03-15T16:12:00.469Z,8.85
2023-03-15T16:14:28.264Z,11.60
2023-03-15T16:16:56.194Z,20.52
2023-03-15T16:19:24.159Z,13.65
2023-03-15T16:21:54.608Z,13.13
2023-03-15T16:24:26.533Z,14.43
2023-03-15T16:27:01.109Z,15.45
2023-03-15T16:29:41.458Z,16.27
2023-03-15T16:32:24.442Z,15.38
2023-03-15T16:34:57.610Z,24.38
2023-03-15T16:37:30.204Z,15.98
2023-03-15T16:40:01.024Z,13.73
2023-03-15T16:42:29.639Z,14.38
2023-03-15T16:44:57.440Z,21.27
2023-03-15T16:47:25.757Z,13.75
2023-03-15T16:49:53.342Z,13.00
2023-03-15T16:52:21.891Z,13.35
2023-03-15T16:54:50.176Z,11.85
2023-03-15T16:57:22.182Z,13.88
2023-03-15T16:59:50.659Z,19.75
2023-03-15T17:02:28.009Z,15.90
2023-03-15T17:04:56.626Z,15.20
2023-03-15T17:07:32.196Z,16.90
2023-03-15T17:10:07.483Z,16.05
2023-03-15T17:12:36.497Z,20.42
2023-03-15T17:15:04.694Z,15.18
2023-03-15T17:17:34.214Z,16.80
2023-03-15T17:20:02.683Z,17.17
2023-03-15T17:22:30.933Z,16.35
2023-03-15T17:24:58.583Z,19.23
2023-03-15T17:27:33.880Z,22.50
2023-03-15T17:30:02.510Z,22.13
2023-03-15T17:32:31.449Z,17.13
2023-03-15T17:34:59.745Z,16.33
2023-03-15T17:37:30.873Z,18.15
2023-03-15T17:39:59.325Z,21.45
2023-03-15T17:42:27.623Z,17.10
2023-03-15T17:44:55.676Z,18.90
2023-03-15T17:47:23.956Z,15.23
2023-03-15T17:49:52.056Z,16.45
2023-03-15T17:52:21.076Z,19.33
2023-03-15T17:54:48.799Z,23.35
2023-03-15T17:57:17.139Z,18.85
2023-03-15T17:59:44.864Z,22.00
2023-03-15T18:02:15.713Z,19.00
2023-03-15T18:04:43.678Z,19.40
2023-03-15T18:07:12.106Z,25.30
2023-03-15T18:09:40.275Z,21.60
2023-03-15T18:12:13.199Z,17.73
2023-03-15T18:14:42.180Z,29.85
2023-03-15T18:17:10.780Z,33.03
2023-03-15T18:19:38.722Z,29.27
2023-03-15T18:22:07.212Z,29.75
2023-03-15T18:24:34.923Z,23.58
2023-03-15T18:27:03.626Z,30.05
2023-03-15T18:29:32.307Z,33.22
2023-03-15T18:32:01.043Z,31.27
2023-03-15T18:34:30.348Z,28.10
2023-03-15T18:36:58.500Z,35.53
2023-03-15T18:39:26.311Z,47.20
2023-03-15T18:41:54.951Z,38.55
2023-03-15T18:44:23.343Z,35.80
2023-03-15T18:46:51.426Z,43.50
2023-03-15T18:49:19.272Z,48.65
2023-03-15T18:51:47.671Z,58.65
2023-03-15T18:54:15.710Z,53.75
2023-03-15T18:56:44.177Z,46.67
2023-03-15T18:59:12.327Z,66.43
2023-03-15T19:01:42.612Z,58.88
2023-03-15T19:04:11.265Z,88.80
2023-03-15T19:06:39.997Z,85.50
2023-03-15T19:09:07.856Z,78.80
2023-03-15T19:11:42.178Z,97.18
2023-03-15T19:14:11.008Z,90.28
2023-03-15T19:16:39.449Z,88.88
2023-03-15T19:19:07.414Z,86.88
2023-03-15T19:21:36.109Z,82.82
2023-03-15T19:24:04.947Z,97.25
2023-03-15T19:26:33.513Z,85.82
2023-03-15T19:29:04.070Z,89.70
2023-03-15T19:31:33.145Z,90.10
2023-03-15T19:34:01.689Z,85.63
2023-03-15T19:36:30.272Z,91.53
2023-03-15T19:38:58.338Z,88.07
2023-03-15T19:41:26.383Z,87.60
2023-03-15T19:43:54.287Z,88.32
2023-03-15T19:46:22.580Z,81.00
2023-03-15T19:48:50.496Z,88.68
2023-03-15T19:51:18.917Z,89.53
2023-03-15T19:53:47.471Z,76.80
2023-03-15T19:56:15.754Z,79.95
2023-03-15T19:58:43.730Z,68.88
2023-03-15T20:01:12.557Z,82.38
2023-03-15T20:03:41.400Z,75.95
2023-03-15T20:06:15.114Z,64.65
2023-03-15T20:08:43.614Z,77.30
2023-03-15T20:11:20.274Z,81.35
2023-03-15T20:13:48.118Z,81.40
2023-03-15T20:16:16.676Z,86.22
2023-03-15T20:18:45.275Z,79.28
2023-03-15T20:21:15.103Z,88.38
2023-03-15T20:23:42.974Z,81.55
2023-03-15T20:26:13.943Z,82.35
2023-03-15T20:28:44.038Z,76.47
2023-03-15T20:31:15.981Z,87.40
2023-03-15T20:33:46.634Z,77.97
2023-03-15T20:36:15.279Z,86.55
2023-03-15T20:38:42.883Z,82.10
2023-03-15T20:41:14.142Z,84.20
2023-03-15T20:43:42.544Z,73.60
2023-03-15T20:46:12.519Z,81.68
2023-03-15T20:48:40.746Z,75.78
2023-03-15T20:51:09.434Z,75.53
2023-03-15T20:53:37.763Z,73.40
2023-03-15T20:56:06.998Z,81.75
2023-03-15T20:58:35.553Z,82.10
2023-03-15T21:01:03.578Z,73.80
2023-03-15T21:03:34.269Z,74.93
2023-03-15T21:06:04.474Z,81.90
2023-03-15T21:08:33.811Z,85.70
2023-03-15T21:11:02.855Z,81.18
2023-03-15T21:13:31.094Z,90.88
2023-03-15T21:16:00.836Z,80.53
2023-03-15T21:18:28.681Z,69.68
2023-03-15T21:20:59.464Z,63.00
2023-03-15T21:23:31.212Z,70.72
2023-03-15T21:26:07.783Z,65.20
2023-03-15T21:28:37.068Z,51.08
2023-03-15T21:31:06.821Z,58.88
2023-03-15T21:33:34.839Z,57.58
2023-03-15T21:36:03.841Z,62.97
2023-03-15T21:38:33.280Z,55.70
2023-03-15T21:41:01.890Z,56.33
2023-03-15T21:43:33.962Z,55.70
2023-03-15T21:46:08.208Z,56.97
2023-03-15T21:48:37.602Z,68.43
2023-03-15T21:51:07.468Z,60.45
2023-03-15T21:53:36.157Z,61.08
2023-03-15T21:56:05.664Z,61.88
2023-03-15T21:58:33.662Z,56.72
2023-03-15T22:01:08.180Z,60.92
2023-03-15T22:03:36.753Z,65.35
2023-03-15T22:06:05.118Z,56.70
2023-03-15T22:08:34.204Z,65.30
2023-03-15T22:11:02.329Z,56.58
2023-03-15T22:13:30.707Z,59.42
2023-03-15T22:15:59.463Z,63.58
2023-03-15T22:18:29.084Z,65.05
2023-03-15T22:20:57.314Z,62.85
2023-03-15T22:23:25.601Z,56.45
2023-03-15T22:25:54.567Z,58.83
2023-03-15T22:28:25.227Z,62.33
2023-03-15T22:30:53.919Z,61.05
2023-03-15T22:33:22.553Z,59.30
2023-03-15T22:35:57.991Z,65.80
2023-03-15T22:38:26.563Z,61.75
2023-03-15T22:41:09.257Z,65.45
2023-03-15T22:43:37.906Z,70.10
2023-03-15T22:46:06.693Z,63.22
2023-03-15T22:48:34.440Z,73.22
2023-03-15T22:51:12.878Z,65.68
2023-03-15T22:53:40.758Z,76.22
2023-03-15T22:56:09.178Z,73.93
2023-03-15T22:58:37.198Z,75.20
2023-03-15T23:01:05.928Z,69.78
2023-03-15T23:03:33.904Z,84.72
2023-03-15T23:06:02.348Z,74.85
2023-03-15T23:08:31.057Z,83.40
2023-03-15T23:10:59.211Z,66.82
2023-03-15T23:13:26.986Z,70.97
2023-03-15T23:15:55.449Z,56.97
2023-03-15T23:18:23.854Z,78.18
2023-03-15T23:20:51.888Z,73.43
2023-03-15T23:23:19.568Z,69.20
2023-03-15T23:25:48.226Z,69.03
2023-03-15T23:28:18.011Z,62.28
2023-03-15T23:30:46.870Z,57.92
2023-03-15T23:33:14.831Z,67.43
2023-03-15T23:35:43.160Z,67.10
2023-03-15T23:38:13.905Z,58.25
2023-03-15T23:40:42.359Z,66.80
2023-03-15T23:43:10.331Z,69.57
2023-03-15T23:45:39.148Z,62.70
2023-03-15T23:48:07.616Z,69.00
2023-03-15T23:50:38.222Z,78.18
2023-03-15T23:53:06.240Z,87.38
2023-03-15T23:55:34.727Z,80.63
2023-03-15T23:58:03.388Z,72.03
